Terminal Aerodrome Forecast
Issued by NWS Raleigh/Durham, NC

Home | Current Version | Previous Version | Text Only | Print | Product List | Glossary On
Versions: 1 2 3 4 5 6 7 8 9 10 11 12 13 14 15 16 17 18 19 20 21 22
000
FTUS42 KRAH 171255 AAB
TAFRDU
TAF AMD
KRDU 171255Z 1713/1812 23006KT 1/4SM -DZ FG OVC001
      TEMPO 1713/1715 1/2SM FG OVC003
     FM171500 23009KT P6SM OVC006
     FM172000 23013G19KT P6SM OVC035
     FM180000 22011KT 5SM BR OVC009
     FM181100 24008KT 4SM BR OVC003=

USA.gov is the U.S. government's official web portal to all federal, state and local government web resources and services.